LYBE/BEG METAR and TAF weather

Enter ICAO airport designator
Station Type Date Time Source
LYBE METAR 2020/04/10 18:00 UTC NOAA

LYBE 101800Z 34005KT CAVOK 16/04 Q1019 NOSIG


Station Type Date Time Source
LYBE Decoded METAR 2020/04/10 18:00 UTC NOAA

Beograd / Surcin, Serbia and Montenegro (LYBE) 44-49N 020-17E 99M
Apr 10, 2020 - 02:00 PM EDT / 2020.04.10 1800 UTC
Wind: from the NNW (340 degrees) at 6 MPH (5 KT):0
Visibility: greater than 7 mile(s):0
Temperature: 60 F (16 C)
Dew Point: 39 F (4 C)
Relative Humidity: 44%
Pressure (altimeter): 30.09 in. Hg (1019 hPa)
ob: LYBE 101800Z 34005KT CAVOK 16/04 Q1019 NOSIG
cycle: 18

Station Type Date Time Source
LYBE TAF 2020/04/10 18:21 UTC NOAA

TAF TAF LYBE 101700Z 1018/1118 02008KT CAVOK TX21/1113Z TN06/1104Z

Example: see airport list